sensor_id;sensor_type;location;lat;lon;timestamp;P1;durP1;ratioP1;P2;durP2;ratioP2
16826;SDS011;8530;49.540;8.576;2023-05-10T00:00:39;1.77;;;1.60;;
16826;SDS011;8530;49.540;8.576;2023-05-10T00:03:06;1.97;;;1.87;;
16826;SDS011;8530;49.540;8.576;2023-05-10T00:05:33;3.10;;;2.27;;
16826;SDS011;8530;49.540;8.576;2023-05-10T00:07:59;2.50;;;2.10;;
16826;SDS011;8530;49.540;8.576;2023-05-10T00:10:27;2.17;;;1.77;;
16826;SDS011;8530;49.540;8.576;2023-05-10T00:12:55;2.03;;;1.90;;
16826;SDS011;8530;49.540;8.576;2023-05-10T00:15:22;2.10;;;1.80;;
16826;SDS011;8530;49.540;8.576;2023-05-10T00:17:48;1.70;;;1.60;;
16826;SDS011;8530;49.540;8.576;2023-05-10T00:20:15;11.10;;;1.93;;
16826;SDS011;8530;49.540;8.576;2023-05-10T00:22:42;1.93;;;1.83;;
16826;SDS011;8530;49.540;8.576;2023-05-10T00:25:09;2.07;;;1.93;;
16826;SDS011;8530;49.540;8.576;2023-05-10T00:27:37;1.93;;;1.83;;
16826;SDS011;8530;49.540;8.576;2023-05-10T00:30:04;3.03;;;2.40;;
16826;SDS011;8530;49.540;8.576;2023-05-10T00:32:32;3.00;;;2.80;;
16826;SDS011;8530;49.540;8.576;2023-05-10T00:34:59;2.40;;;2.20;;
16826;SDS011;8530;49.540;8.576;2023-05-10T00:37:25;2.47;;;2.27;;
16826;SDS011;8530;49.540;8.576;2023-05-10T00:39:52;2.30;;;2.10;;
16826;SDS011;8530;49.540;8.576;2023-05-10T00:42:19;2.47;;;2.27;;
16826;SDS011;8530;49.540;8.576;2023-05-10T00:44:47;2.63;;;2.43;;
16826;SDS011;8530;49.540;8.576;2023-05-10T00:47:14;3.10;;;2.40;;
16826;SDS011;8530;49.540;8.576;2023-05-10T00:49:42;3.00;;;2.70;;
16826;SDS011;8530;49.540;8.576;2023-05-10T00:52:09;3.00;;;2.70;;
16826;SDS011;8530;49.540;8.576;2023-05-10T00:54:36;2.70;;;2.50;;
16826;SDS011;8530;49.540;8.576;2023-05-10T00:57:03;5.20;;;2.30;;
16826;SDS011;8530;49.540;8.576;2023-05-10T00:59:30;3.63;;;2.63;;
16826;SDS011;8530;49.540;8.576;2023-05-10T01:01:58;4.10;;;2.30;;
16826;SDS011;8530;49.540;8.576;2023-05-10T01:04:25;2.40;;;2.20;;
16826;SDS011;8530;49.540;8.576;2023-05-10T01:06:52;2.20;;;2.00;;
16826;SDS011;8530;49.540;8.576;2023-05-10T01:09:19;2.70;;;2.50;;
16826;SDS011;8530;49.540;8.576;2023-05-10T01:11:47;2.73;;;2.53;;
16826;SDS011;8530;49.540;8.576;2023-05-10T01:14:14;2.37;;;2.17;;
16826;SDS011;8530;49.540;8.576;2023-05-10T01:16:43;2.70;;;2.50;;
16826;SDS011;8530;49.540;8.576;2023-05-10T01:19:16;6.70;;;2.40;;
16826;SDS011;8530;49.540;8.576;2023-05-10T01:21:48;2.27;;;2.10;;
16826;SDS011;8530;49.540;8.576;2023-05-10T01:27:42;4.30;;;2.40;;
16826;SDS011;8530;49.540;8.576;2023-05-10T01:30:28;2.70;;;2.50;;
16826;SDS011;8530;49.540;8.576;2023-05-10T01:33:12;5.03;;;2.80;;
16826;SDS011;8530;49.540;8.576;2023-05-10T01:35:46;7.17;;;2.70;;
16826;SDS011;8530;49.540;8.576;2023-05-10T01:38:18;3.13;;;2.83;;
16826;SDS011;8530;49.540;8.576;2023-05-10T01:40:52;6.93;;;3.00;;
16826;SDS011;8530;49.540;8.576;2023-05-10T01:43:30;3.43;;;3.13;;
16826;SDS011;8530;49.540;8.576;2023-05-10T01:46:03;3.37;;;3.07;;
16826;SDS011;8530;49.540;8.576;2023-05-10T01:48:37;3.57;;;2.90;;
16826;SDS011;8530;49.540;8.576;2023-05-10T01:51:08;2.80;;;2.60;;
16826;SDS011;8530;49.540;8.576;2023-05-10T01:53:36;2.87;;;2.63;;
16826;SDS011;8530;49.540;8.576;2023-05-10T01:56:04;3.10;;;2.80;;
16826;SDS011;8530;49.540;8.576;2023-05-10T01:58:33;3.43;;;3.13;;
16826;SDS011;8530;49.540;8.576;2023-05-10T02:01:03;3.50;;;3.20;;
16826;SDS011;8530;49.540;8.576;2023-05-10T02:03:31;2.43;;;2.23;;
16826;SDS011;8530;49.540;8.576;2023-05-10T02:06:02;2.70;;;2.30;;
16826;SDS011;8530;49.540;8.576;2023-05-10T02:08:30;2.67;;;2.47;;
16826;SDS011;8530;49.540;8.576;2023-05-10T02:11:01;2.53;;;2.33;;
16826;SDS011;8530;49.540;8.576;2023-05-10T02:13:29;2.87;;;2.67;;
16826;SDS011;8530;49.540;8.576;2023-05-10T02:15:59;2.30;;;2.10;;
16826;SDS011;8530;49.540;8.576;2023-05-10T02:18:29;4.97;;;2.20;;
16826;SDS011;8530;49.540;8.576;2023-05-10T02:20:56;2.50;;;2.30;;
16826;SDS011;8530;49.540;8.576;2023-05-10T02:23:26;5.50;;;2.47;;
16826;SDS011;8530;49.540;8.576;2023-05-10T02:25:54;7.00;;;3.63;;
16826;SDS011;8530;49.540;8.576;2023-05-10T02:28:23;3.03;;;2.73;;
16826;SDS011;8530;49.540;8.576;2023-05-10T02:30:51;3.23;;;2.90;;
16826;SDS011;8530;49.540;8.576;2023-05-10T02:33:19;3.70;;;2.73;;
16826;SDS011;8530;49.540;8.576;2023-05-10T02:35:47;2.97;;;2.73;;
16826;SDS011;8530;49.540;8.576;2023-05-10T02:38:14;4.30;;;2.90;;
16826;SDS011;8530;49.540;8.576;2023-05-10T02:40:44;2.70;;;2.50;;
16826;SDS011;8530;49.540;8.576;2023-05-10T02:43:12;10.13;;;2.50;;
16826;SDS011;8530;49.540;8.576;2023-05-10T02:45:41;4.03;;;2.33;;
16826;SDS011;8530;49.540;8.576;2023-05-10T02:48:09;5.00;;;2.67;;
16826;SDS011;8530;49.540;8.576;2023-05-10T02:50:36;3.50;;;2.60;;
16826;SDS011;8530;49.540;8.576;2023-05-10T02:53:06;4.50;;;2.70;;
16826;SDS011;8530;49.540;8.576;2023-05-10T02:55:40;10.53;;;3.13;;
16826;SDS011;8530;49.540;8.576;2023-05-10T02:58:12;3.63;;;2.30;;
16826;SDS011;8530;49.540;8.576;2023-05-10T03:00:39;2.50;;;2.30;;
16826;SDS011;8530;49.540;8.576;2023-05-10T03:03:06;3.07;;;2.63;;
16826;SDS011;8530;49.540;8.576;2023-05-10T03:05:33;2.30;;;2.10;;
16826;SDS011;8530;49.540;8.576;2023-05-10T03:08:00;2.53;;;2.30;;
16826;SDS011;8530;49.540;8.576;2023-05-10T03:10:29;7.57;;;3.20;;
16826;SDS011;8530;49.540;8.576;2023-05-10T03:13:01;2.40;;;2.20;;
16826;SDS011;8530;49.540;8.576;2023-05-10T03:15:40;3.33;;;2.40;;
16826;SDS011;8530;49.540;8.576;2023-05-10T03:18:15;2.77;;;2.57;;
16826;SDS011;8530;49.540;8.576;2023-05-10T03:20:47;2.83;;;2.63;;
16826;SDS011;8530;49.540;8.576;2023-05-10T03:23:19;6.73;;;2.30;;
16826;SDS011;8530;49.540;8.576;2023-05-10T03:25:48;6.23;;;2.53;;
16826;SDS011;8530;49.540;8.576;2023-05-10T03:28:16;4.57;;;3.03;;
16826;SDS011;8530;49.540;8.576;2023-05-10T03:30:46;2.93;;;2.70;;
16826;SDS011;8530;49.540;8.576;2023-05-10T03:33:13;4.50;;;2.40;;
16826;SDS011;8530;49.540;8.576;2023-05-10T03:35:40;7.50;;;2.80;;
16826;SDS011;8530;49.540;8.576;2023-05-10T03:38:07;5.40;;;3.43;;
16826;SDS011;8530;49.540;8.576;2023-05-10T03:40:33;2.83;;;2.63;;
16826;SDS011;8530;49.540;8.576;2023-05-10T03:43:00;5.03;;;2.87;;
16826;SDS011;8530;49.540;8.576;2023-05-10T03:45:27;2.90;;;2.60;;
16826;SDS011;8530;49.540;8.576;2023-05-10T03:47:55;5.60;;;3.10;;
16826;SDS011;8530;49.540;8.576;2023-05-10T03:50:22;3.40;;;3.10;;
16826;SDS011;8530;49.540;8.576;2023-05-10T03:52:49;5.90;;;3.00;;
16826;SDS011;8530;49.540;8.576;2023-05-10T03:55:16;3.87;;;3.43;;
16826;SDS011;8530;49.540;8.576;2023-05-10T03:57:43;5.00;;;3.37;;
16826;SDS011;8530;49.540;8.576;2023-05-10T04:00:10;6.73;;;3.30;;
16826;SDS011;8530;49.540;8.576;2023-05-10T04:02:37;4.83;;;4.43;;
16826;SDS011;8530;49.540;8.576;2023-05-10T04:05:06;7.87;;;4.20;;
16826;SDS011;8530;49.540;8.576;2023-05-10T04:07:33;4.60;;;4.20;;
16826;SDS011;8530;49.540;8.576;2023-05-10T04:09:59;4.30;;;3.90;;
16826;SDS011;8530;49.540;8.576;2023-05-10T04:12:26;5.73;;;3.93;;
16826;SDS011;8530;49.540;8.576;2023-05-10T04:14:53;6.63;;;4.13;;
16826;SDS011;8530;49.540;8.576;2023-05-10T04:17:19;3.83;;;3.53;;
16826;SDS011;8530;49.540;8.576;2023-05-10T04:19:46;5.13;;;4.43;;
16826;SDS011;8530;49.540;8.576;2023-05-10T04:22:14;4.67;;;4.27;;
16826;SDS011;8530;49.540;8.576;2023-05-10T04:24:41;4.63;;;4.20;;
16826;SDS011;8530;49.540;8.576;2023-05-10T04:27:07;4.53;;;3.90;;
16826;SDS011;8530;49.540;8.576;2023-05-10T04:29:34;5.10;;;4.70;;
16826;SDS011;8530;49.540;8.576;2023-05-10T04:32:01;7.07;;;4.33;;
16826;SDS011;8530;49.540;8.576;2023-05-10T04:34:28;4.87;;;3.70;;
16826;SDS011;8530;49.540;8.576;2023-05-10T04:36:55;4.63;;;4.23;;
16826;SDS011;8530;49.540;8.576;2023-05-10T04:39:23;5.70;;;5.00;;
16826;SDS011;8530;49.540;8.576;2023-05-10T04:41:49;4.27;;;3.87;;
16826;SDS011;8530;49.540;8.576;2023-05-10T04:44:16;4.30;;;3.90;;
16826;SDS011;8530;49.540;8.576;2023-05-10T04:46:43;5.70;;;3.83;;
16826;SDS011;8530;49.540;8.576;2023-05-10T04:49:09;4.40;;;3.57;;
16826;SDS011;8530;49.540;8.576;2023-05-10T04:51:36;6.60;;;4.30;;
16826;SDS011;8530;49.540;8.576;2023-05-10T04:54:03;5.00;;;4.60;;
16826;SDS011;8530;49.540;8.576;2023-05-10T04:56:31;4.50;;;3.27;;
16826;SDS011;8530;49.540;8.576;2023-05-10T04:58:58;4.60;;;4.10;;
16826;SDS011;8530;49.540;8.576;2023-05-10T05:01:24;5.40;;;3.67;;
16826;SDS011;8530;49.540;8.576;2023-05-10T05:03:51;4.70;;;4.10;;
16826;SDS011;8530;49.540;8.576;2023-05-10T05:06:18;4.80;;;3.73;;
16826;SDS011;8530;49.540;8.576;2023-05-10T05:08:45;4.27;;;3.40;;
16826;SDS011;8530;49.540;8.576;2023-05-10T05:11:14;3.97;;;3.20;;
16826;SDS011;8530;49.540;8.576;2023-05-10T05:13:42;3.97;;;3.57;;
16826;SDS011;8530;49.540;8.576;2023-05-10T05:16:09;4.57;;;3.90;;
16826;SDS011;8530;49.540;8.576;2023-05-10T05:18:36;7.73;;;4.53;;
16826;SDS011;8530;49.540;8.576;2023-05-10T05:21:03;4.10;;;3.80;;
16826;SDS011;8530;49.540;8.576;2023-05-10T05:23:39;7.10;;;4.13;;
16826;SDS011;8530;49.540;8.576;2023-05-10T05:26:05;4.87;;;4.33;;
16826;SDS011;8530;49.540;8.576;2023-05-10T05:28:32;7.07;;;4.67;;
16826;SDS011;8530;49.540;8.576;2023-05-10T05:31:03;4.70;;;4.30;;
16826;SDS011;8530;49.540;8.576;2023-05-10T05:33:30;5.23;;;4.37;;
16826;SDS011;8530;49.540;8.576;2023-05-10T05:35:57;4.17;;;3.70;;
16826;SDS011;8530;49.540;8.576;2023-05-10T05:38:27;5.20;;;3.50;;
16826;SDS011;8530;49.540;8.576;2023-05-10T05:40:53;4.60;;;3.90;;
16826;SDS011;8530;49.540;8.576;2023-05-10T05:43:20;4.20;;;3.90;;
16826;SDS011;8530;49.540;8.576;2023-05-10T05:45:47;5.10;;;4.60;;
16826;SDS011;8530;49.540;8.576;2023-05-10T05:48:15;5.67;;;4.70;;
16826;SDS011;8530;49.540;8.576;2023-05-10T05:50:41;4.73;;;4.10;;
16826;SDS011;8530;49.540;8.576;2023-05-10T05:53:08;4.00;;;3.70;;
16826;SDS011;8530;49.540;8.576;2023-05-10T05:55:35;5.13;;;4.30;;
16826;SDS011;8530;49.540;8.576;2023-05-10T05:58:02;4.43;;;4.03;;
16826;SDS011;8530;49.540;8.576;2023-05-10T06:00:29;4.67;;;4.23;;
16826;SDS011;8530;49.540;8.576;2023-05-10T06:02:56;4.23;;;3.93;;
16826;SDS011;8530;49.540;8.576;2023-05-10T06:05:24;5.83;;;5.10;;
16826;SDS011;8530;49.540;8.576;2023-05-10T06:07:50;5.87;;;4.90;;
16826;SDS011;8530;49.540;8.576;2023-05-10T06:10:17;5.70;;;5.20;;
16826;SDS011;8530;49.540;8.576;2023-05-10T06:12:44;6.63;;;5.97;;
16826;SDS011;8530;49.540;8.576;2023-05-10T06:15:11;7.63;;;5.43;;
16826;SDS011;8530;49.540;8.576;2023-05-10T06:17:37;9.57;;;5.80;;
16826;SDS011;8530;49.540;8.576;2023-05-10T06:20:05;6.70;;;5.47;;
16826;SDS011;8530;49.540;8.576;2023-05-10T06:22:34;5.80;;;5.23;;
16826;SDS011;8530;49.540;8.576;2023-05-10T06:25:01;6.50;;;5.90;;
16826;SDS011;8530;49.540;8.576;2023-05-10T06:27:27;6.80;;;5.73;;
16826;SDS011;8530;49.540;8.576;2023-05-10T06:29:54;9.33;;;5.37;;
16826;SDS011;8530;49.540;8.576;2023-05-10T06:32:21;6.03;;;5.53;;
16826;SDS011;8530;49.540;8.576;2023-05-10T06:34:47;7.77;;;5.80;;
16826;SDS011;8530;49.540;8.576;2023-05-10T06:37:14;6.20;;;5.60;;
16826;SDS011;8530;49.540;8.576;2023-05-10T06:39:42;6.73;;;5.63;;
16826;SDS011;8530;49.540;8.576;2023-05-10T06:42:09;7.10;;;5.13;;
16826;SDS011;8530;49.540;8.576;2023-05-10T06:44:35;7.63;;;5.83;;
16826;SDS011;8530;49.540;8.576;2023-05-10T06:47:02;8.73;;;5.67;;
16826;SDS011;8530;49.540;8.576;2023-05-10T06:49:29;6.53;;;5.77;;
16826;SDS011;8530;49.540;8.576;2023-05-10T06:51:56;6.60;;;5.93;;
16826;SDS011;8530;49.540;8.576;2023-05-10T06:54:22;6.97;;;6.27;;
16826;SDS011;8530;49.540;8.576;2023-05-10T06:56:50;10.67;;;5.10;;
16826;SDS011;8530;49.540;8.576;2023-05-10T06:59:17;7.30;;;6.70;;
16826;SDS011;8530;49.540;8.576;2023-05-10T07:01:46;10.73;;;6.60;;
16826;SDS011;8530;49.540;8.576;2023-05-10T07:04:13;6.33;;;5.60;;
16826;SDS011;8530;49.540;8.576;2023-05-10T07:06:39;7.17;;;6.57;;
16826;SDS011;8530;49.540;8.576;2023-05-10T07:09:06;10.10;;;6.60;;
16826;SDS011;8530;49.540;8.576;2023-05-10T07:11:33;8.73;;;6.37;;
16826;SDS011;8530;49.540;8.576;2023-05-10T07:14:01;7.90;;;6.20;;
16826;SDS011;8530;49.540;8.576;2023-05-10T07:16:28;9.67;;;5.97;;
16826;SDS011;8530;49.540;8.576;2023-05-10T07:18:54;6.67;;;6.07;;
16826;SDS011;8530;49.540;8.576;2023-05-10T07:21:21;5.70;;;5.10;;
16826;SDS011;8530;49.540;8.576;2023-05-10T07:23:49;6.90;;;6.30;;
16826;SDS011;8530;49.540;8.576;2023-05-10T07:26:16;6.47;;;5.87;;
16826;SDS011;8530;49.540;8.576;2023-05-10T07:28:43;8.30;;;5.10;;
16826;SDS011;8530;49.540;8.576;2023-05-10T07:31:11;16.13;;;5.00;;
16826;SDS011;8530;49.540;8.576;2023-05-10T07:33:38;6.13;;;4.27;;
16826;SDS011;8530;49.540;8.576;2023-05-10T07:36:05;7.67;;;4.80;;
16826;SDS011;8530;49.540;8.576;2023-05-10T07:38:31;5.43;;;4.93;;
16826;SDS011;8530;49.540;8.576;2023-05-10T07:40:58;4.07;;;3.73;;
16826;SDS011;8530;49.540;8.576;2023-05-10T07:43:25;4.10;;;3.03;;
16826;SDS011;8530;49.540;8.576;2023-05-10T07:45:52;4.00;;;3.70;;
16826;SDS011;8530;49.540;8.576;2023-05-10T07:48:20;11.77;;;3.13;;
16826;SDS011;8530;49.540;8.576;2023-05-10T07:50:46;5.40;;;3.50;;
16826;SDS011;8530;49.540;8.576;2023-05-10T07:53:13;4.33;;;2.90;;
16826;SDS011;8530;49.540;8.576;2023-05-10T07:55:40;3.80;;;2.70;;
16826;SDS011;8530;49.540;8.576;2023-05-10T07:58:06;3.90;;;3.00;;
16826;SDS011;8530;49.540;8.576;2023-05-10T08:00:33;2.60;;;2.40;;
16826;SDS011;8530;49.540;8.576;2023-05-10T08:05:29;4.43;;;2.50;;
16826;SDS011;8530;49.540;8.576;2023-05-10T08:07:56;2.60;;;2.30;;
16826;SDS011;8530;49.540;8.576;2023-05-10T08:10:23;3.10;;;2.43;;
16826;SDS011;8530;49.540;8.576;2023-05-10T08:12:50;3.77;;;2.27;;
16826;SDS011;8530;49.540;8.576;2023-05-10T08:15:17;2.37;;;1.73;;
16826;SDS011;8530;49.540;8.576;2023-05-10T08:17:44;3.17;;;2.63;;
16826;SDS011;8530;49.540;8.576;2023-05-10T08:20:11;2.70;;;1.90;;
16826;SDS011;8530;49.540;8.576;2023-05-10T08:22:42;5.50;;;2.13;;
16826;SDS011;8530;49.540;8.576;2023-05-10T08:25:09;2.40;;;1.63;;
16826;SDS011;8530;49.540;8.576;2023-05-10T08:27:36;5.43;;;1.60;;
16826;SDS011;8530;49.540;8.576;2023-05-10T08:30:03;1.90;;;1.73;;
16826;SDS011;8530;49.540;8.576;2023-05-10T08:32:30;2.23;;;1.83;;
16826;SDS011;8530;49.540;8.576;2023-05-10T08:34:57;1.70;;;1.60;;
16826;SDS011;8530;49.540;8.576;2023-05-10T08:37:24;5.47;;;2.33;;
16826;SDS011;8530;49.540;8.576;2023-05-10T08:39:52;3.73;;;1.60;;
16826;SDS011;8530;49.540;8.576;2023-05-10T08:42:19;2.20;;;1.93;;
16826;SDS011;8530;49.540;8.576;2023-05-10T08:44:52;3.40;;;1.83;;
16826;SDS011;8530;49.540;8.576;2023-05-10T08:47:20;2.30;;;1.90;;
16826;SDS011;8530;49.540;8.576;2023-05-10T08:49:47;2.83;;;1.80;;
16826;SDS011;8530;49.540;8.576;2023-05-10T08:52:16;8.83;;;2.30;;
16826;SDS011;8530;49.540;8.576;2023-05-10T08:54:43;2.00;;;1.50;;
16826;SDS011;8530;49.540;8.576;2023-05-10T08:57:11;2.70;;;1.50;;
16826;SDS011;8530;49.540;8.576;2023-05-10T08:59:38;2.00;;;1.60;;
16826;SDS011;8530;49.540;8.576;2023-05-10T09:02:05;3.63;;;1.70;;
16826;SDS011;8530;49.540;8.576;2023-05-10T09:04:34;4.90;;;2.40;;
16826;SDS011;8530;49.540;8.576;2023-05-10T09:07:01;2.20;;;1.73;;
16826;SDS011;8530;49.540;8.576;2023-05-10T09:09:28;3.10;;;1.70;;
16826;SDS011;8530;49.540;8.576;2023-05-10T09:11:55;2.77;;;1.30;;
16826;SDS011;8530;49.540;8.576;2023-05-10T09:14:23;4.90;;;1.73;;
16826;SDS011;8530;49.540;8.576;2023-05-10T09:16:51;4.13;;;1.77;;
16826;SDS011;8530;49.540;8.576;2023-05-10T09:19:19;2.50;;;1.60;;
16826;SDS011;8530;49.540;8.576;2023-05-10T09:21:45;3.97;;;2.30;;
16826;SDS011;8530;49.540;8.576;2023-05-10T09:24:12;3.50;;;2.10;;
16826;SDS011;8530;49.540;8.576;2023-05-10T09:26:45;2.10;;;1.90;;
16826;SDS011;8530;49.540;8.576;2023-05-10T09:29:13;10.23;;;2.10;;
16826;SDS011;8530;49.540;8.576;2023-05-10T09:31:44;2.07;;;1.73;;
16826;SDS011;8530;49.540;8.576;2023-05-10T09:34:15;5.97;;;2.50;;
16826;SDS011;8530;49.540;8.576;2023-05-10T09:36:50;2.37;;;1.77;;
16826;SDS011;8530;49.540;8.576;2023-05-10T09:39:18;3.57;;;1.70;;
16826;SDS011;8530;49.540;8.576;2023-05-10T09:41:45;2.40;;;2.20;;
16826;SDS011;8530;49.540;8.576;2023-05-10T09:44:14;2.23;;;2.03;;
16826;SDS011;8530;49.540;8.576;2023-05-10T09:46:49;7.53;;;2.37;;
16826;SDS011;8530;49.540;8.576;2023-05-10T09:49:17;1.67;;;1.37;;
16826;SDS011;8530;49.540;8.576;2023-05-10T09:51:44;4.70;;;2.40;;
16826;SDS011;8530;49.540;8.576;2023-05-10T09:54:12;4.90;;;1.83;;
16826;SDS011;8530;49.540;8.576;2023-05-10T09:56:40;3.20;;;1.73;;
16826;SDS011;8530;49.540;8.576;2023-05-10T09:59:07;2.40;;;1.70;;
16826;SDS011;8530;49.540;8.576;2023-05-10T10:01:35;2.20;;;1.90;;
16826;SDS011;8530;49.540;8.576;2023-05-10T10:04:04;2.67;;;2.03;;
16826;SDS011;8530;49.540;8.576;2023-05-10T10:06:35;2.97;;;1.60;;
16826;SDS011;8530;49.540;8.576;2023-05-10T10:09:03;4.43;;;1.90;;
16826;SDS011;8530;49.540;8.576;2023-05-10T10:11:30;4.30;;;1.90;;
16826;SDS011;8530;49.540;8.576;2023-05-10T10:13:57;6.03;;;2.77;;
16826;SDS011;8530;49.540;8.576;2023-05-10T10:16:24;2.93;;;2.10;;
16826;SDS011;8530;49.540;8.576;2023-05-10T10:18:52;4.30;;;1.57;;
16826;SDS011;8530;49.540;8.576;2023-05-10T10:21:21;5.47;;;1.80;;
16826;SDS011;8530;49.540;8.576;2023-05-10T10:23:48;2.60;;;2.00;;
16826;SDS011;8530;49.540;8.576;2023-05-10T10:26:15;4.50;;;1.70;;
16826;SDS011;8530;49.540;8.576;2023-05-10T10:28:47;4.03;;;2.20;;
16826;SDS011;8530;49.540;8.576;2023-05-10T10:31:20;3.20;;;2.40;;
16826;SDS011;8530;49.540;8.576;2023-05-10T10:33:56;2.70;;;2.20;;
16826;SDS011;8530;49.540;8.576;2023-05-10T10:36:28;2.50;;;1.93;;
16826;SDS011;8530;49.540;8.576;2023-05-10T10:38:58;7.90;;;2.30;;
16826;SDS011;8530;49.540;8.576;2023-05-10T10:41:30;3.67;;;2.67;;
16826;SDS011;8530;49.540;8.576;2023-05-10T10:47:00;6.90;;;2.30;;
16826;SDS011;8530;49.540;8.576;2023-05-10T10:49:27;2.43;;;2.23;;
16826;SDS011;8530;49.540;8.576;2023-05-10T10:52:15;2.50;;;1.97;;
16826;SDS011;8530;49.540;8.576;2023-05-10T10:54:49;3.53;;;2.40;;
16826;SDS011;8530;49.540;8.576;2023-05-10T10:57:18;1.80;;;1.63;;
16826;SDS011;8530;49.540;8.576;2023-05-10T10:59:46;2.80;;;2.30;;
16826;SDS011;8530;49.540;8.576;2023-05-10T11:05:23;3.73;;;2.33;;
16826;SDS011;8530;49.540;8.576;2023-05-10T11:07:52;2.67;;;1.70;;
16826;SDS011;8530;49.540;8.576;2023-05-10T11:10:19;2.60;;;2.10;;
16826;SDS011;8530;49.540;8.576;2023-05-10T11:12:53;1.87;;;1.63;;
16826;SDS011;8530;49.540;8.576;2023-05-10T11:15:28;2.47;;;1.80;;
16826;SDS011;8530;49.540;8.576;2023-05-10T11:17:55;2.13;;;1.30;;
16826;SDS011;8530;49.540;8.576;2023-05-10T11:20:22;8.10;;;2.07;;
16826;SDS011;8530;49.540;8.576;2023-05-10T11:22:55;6.53;;;1.53;;
16826;SDS011;8530;49.540;8.576;2023-05-10T11:25:26;3.43;;;1.80;;
16826;SDS011;8530;49.540;8.576;2023-05-10T11:27:53;8.30;;;1.77;;
16826;SDS011;8530;49.540;8.576;2023-05-10T11:30:20;2.80;;;1.67;;
16826;SDS011;8530;49.540;8.576;2023-05-10T11:32:47;4.60;;;2.00;;
16826;SDS011;8530;49.540;8.576;2023-05-10T11:35:13;5.20;;;1.53;;
16826;SDS011;8530;49.540;8.576;2023-05-10T11:37:41;2.30;;;1.07;;
16826;SDS011;8530;49.540;8.576;2023-05-10T11:40:10;2.97;;;1.30;;
16826;SDS011;8530;49.540;8.576;2023-05-10T11:42:37;2.13;;;1.30;;
16826;SDS011;8530;49.540;8.576;2023-05-10T11:45:05;2.27;;;1.13;;
16826;SDS011;8530;49.540;8.576;2023-05-10T11:47:32;2.37;;;1.60;;
16826;SDS011;8530;49.540;8.576;2023-05-10T11:50:00;4.27;;;1.50;;
16826;SDS011;8530;49.540;8.576;2023-05-10T11:52:27;4.83;;;1.57;;
16826;SDS011;8530;49.540;8.576;2023-05-10T11:54:54;1.83;;;0.80;;
16826;SDS011;8530;49.540;8.576;2023-05-10T11:57:26;1.60;;;1.13;;
16826;SDS011;8530;49.540;8.576;2023-05-10T11:59:54;2.07;;;1.07;;
16826;SDS011;8530;49.540;8.576;2023-05-10T12:02:20;2.77;;;1.20;;
16826;SDS011;8530;49.540;8.576;2023-05-10T12:04:47;3.33;;;1.50;;
16826;SDS011;8530;49.540;8.576;2023-05-10T12:07:14;5.30;;;1.30;;
16826;SDS011;8530;49.540;8.576;2023-05-10T12:09:42;1.73;;;1.20;;
16826;SDS011;8530;49.540;8.576;2023-05-10T12:12:09;10.20;;;1.33;;
16826;SDS011;8530;49.540;8.576;2023-05-10T12:14:37;2.60;;;1.20;;
16826;SDS011;8530;49.540;8.576;2023-05-10T12:17:04;2.27;;;1.40;;
16826;SDS011;8530;49.540;8.576;2023-05-10T12:19:36;2.10;;;1.00;;
16826;SDS011;8530;49.540;8.576;2023-05-10T12:22:04;36.80;;;2.67;;
16826;SDS011;8530;49.540;8.576;2023-05-10T12:24:33;2.57;;;1.27;;
16826;SDS011;8530;49.540;8.576;2023-05-10T12:27:04;2.60;;;1.33;;
16826;SDS011;8530;49.540;8.576;2023-05-10T12:29:33;1.60;;;1.17;;
16826;SDS011;8530;49.540;8.576;2023-05-10T12:32:01;1.83;;;1.10;;
16826;SDS011;8530;49.540;8.576;2023-05-10T12:34:30;3.53;;;1.50;;
16826;SDS011;8530;49.540;8.576;2023-05-10T12:36:57;3.90;;;1.20;;
16826;SDS011;8530;49.540;8.576;2023-05-10T12:39:24;3.53;;;1.67;;
16826;SDS011;8530;49.540;8.576;2023-05-10T12:41:51;3.90;;;1.47;;
16826;SDS011;8530;49.540;8.576;2023-05-10T12:44:18;1.50;;;1.00;;
16826;SDS011;8530;49.540;8.576;2023-05-10T12:46:46;3.93;;;1.03;;
16826;SDS011;8530;49.540;8.576;2023-05-10T12:49:14;5.47;;;1.50;;
16826;SDS011;8530;49.540;8.576;2023-05-10T12:51:41;4.43;;;1.37;;
16826;SDS011;8530;49.540;8.576;2023-05-10T12:54:08;2.63;;;1.13;;
16826;SDS011;8530;49.540;8.576;2023-05-10T12:56:35;4.30;;;1.23;;
16826;SDS011;8530;49.540;8.576;2023-05-10T12:59:02;6.33;;;1.73;;
16826;SDS011;8530;49.540;8.576;2023-05-10T13:01:28;8.10;;;1.30;;
16826;SDS011;8530;49.540;8.576;2023-05-10T13:03:55;4.30;;;1.77;;
16826;SDS011;8530;49.540;8.576;2023-05-10T13:06:23;3.23;;;1.17;;
16826;SDS011;8530;49.540;8.576;2023-05-10T13:08:50;2.93;;;1.20;;
16826;SDS011;8530;49.540;8.576;2023-05-10T13:11:17;2.13;;;1.10;;
16826;SDS011;8530;49.540;8.576;2023-05-10T13:13:44;5.13;;;1.67;;
16826;SDS011;8530;49.540;8.576;2023-05-10T13:16:11;9.53;;;1.77;;
16826;SDS011;8530;49.540;8.576;2023-05-10T13:18:38;3.23;;;1.47;;
16826;SDS011;8530;49.540;8.576;2023-05-10T13:21:04;3.77;;;1.60;;
16826;SDS011;8530;49.540;8.576;2023-05-10T13:23:33;12.07;;;1.63;;
16826;SDS011;8530;49.540;8.576;2023-05-10T13:26:00;4.20;;;1.53;;
16826;SDS011;8530;49.540;8.576;2023-05-10T13:28:27;2.77;;;1.20;;
16826;SDS011;8530;49.540;8.576;2023-05-10T13:30:54;2.13;;;1.07;;
16826;SDS011;8530;49.540;8.576;2023-05-10T13:33:21;2.90;;;1.60;;
16826;SDS011;8530;49.540;8.576;2023-05-10T13:35:47;4.40;;;1.37;;
16826;SDS011;8530;49.540;8.576;2023-05-10T13:38:14;7.77;;;1.23;;
16826;SDS011;8530;49.540;8.576;2023-05-10T13:40:42;2.33;;;1.20;;
16826;SDS011;8530;49.540;8.576;2023-05-10T13:43:09;6.17;;;1.40;;
16826;SDS011;8530;49.540;8.576;2023-05-10T13:45:36;4.00;;;1.73;;
16826;SDS011;8530;49.540;8.576;2023-05-10T13:48:03;4.40;;;2.13;;
16826;SDS011;8530;49.540;8.576;2023-05-10T13:50:30;3.27;;;1.23;;
16826;SDS011;8530;49.540;8.576;2023-05-10T13:52:57;2.93;;;1.20;;
16826;SDS011;8530;49.540;8.576;2023-05-10T13:55:23;3.20;;;1.50;;
16826;SDS011;8530;49.540;8.576;2023-05-10T13:57:51;2.40;;;0.90;;
16826;SDS011;8530;49.540;8.576;2023-05-10T14:00:18;1.60;;;1.10;;
16826;SDS011;8530;49.540;8.576;2023-05-10T14:02:45;4.60;;;1.50;;
16826;SDS011;8530;49.540;8.576;2023-05-10T14:05:11;2.60;;;1.53;;
16826;SDS011;8530;49.540;8.576;2023-05-10T14:07:38;2.13;;;1.10;;
16826;SDS011;8530;49.540;8.576;2023-05-10T14:10:05;6.00;;;1.50;;
16826;SDS011;8530;49.540;8.576;2023-05-10T14:12:32;1.40;;;1.03;;
16826;SDS011;8530;49.540;8.576;2023-05-10T14:15:00;2.23;;;1.10;;
16826;SDS011;8530;49.540;8.576;2023-05-10T14:17:27;4.43;;;2.23;;
16826;SDS011;8530;49.540;8.576;2023-05-10T14:19:54;3.60;;;1.17;;
16826;SDS011;8530;49.540;8.576;2023-05-10T14:22:21;2.50;;;1.50;;
16826;SDS011;8530;49.540;8.576;2023-05-10T14:24:47;5.00;;;1.03;;
16826;SDS011;8530;49.540;8.576;2023-05-10T14:27:15;6.53;;;1.40;;
16826;SDS011;8530;49.540;8.576;2023-05-10T14:29:41;4.57;;;1.40;;
16826;SDS011;8530;49.540;8.576;2023-05-10T14:32:09;2.80;;;0.97;;
16826;SDS011;8530;49.540;8.576;2023-05-10T14:34:36;6.03;;;1.50;;
16826;SDS011;8530;49.540;8.576;2023-05-10T14:37:03;3.43;;;1.07;;
16826;SDS011;8530;49.540;8.576;2023-05-10T14:39:30;2.30;;;1.20;;
16826;SDS011;8530;49.540;8.576;2023-05-10T14:41:58;3.10;;;1.00;;
16826;SDS011;8530;49.540;8.576;2023-05-10T14:44:24;3.40;;;0.90;;
16826;SDS011;8530;49.540;8.576;2023-05-10T14:46:51;3.47;;;1.10;;
16826;SDS011;8530;49.540;8.576;2023-05-10T14:49:19;3.10;;;1.30;;
16826;SDS011;8530;49.540;8.576;2023-05-10T14:51:47;3.83;;;1.03;;
16826;SDS011;8530;49.540;8.576;2023-05-10T14:54:14;2.60;;;1.20;;
16826;SDS011;8530;49.540;8.576;2023-05-10T14:56:41;6.80;;;1.30;;
16826;SDS011;8530;49.540;8.576;2023-05-10T14:59:07;1.80;;;1.00;;
16826;SDS011;8530;49.540;8.576;2023-05-10T15:01:34;2.63;;;1.17;;
16826;SDS011;8530;49.540;8.576;2023-05-10T15:04:02;3.77;;;1.43;;
16826;SDS011;8530;49.540;8.576;2023-05-10T15:06:34;3.33;;;0.97;;
16826;SDS011;8530;49.540;8.576;2023-05-10T15:09:02;7.27;;;1.90;;
16826;SDS011;8530;49.540;8.576;2023-05-10T15:11:29;5.60;;;2.03;;
16826;SDS011;8530;49.540;8.576;2023-05-10T15:13:56;4.40;;;0.90;;
16826;SDS011;8530;49.540;8.576;2023-05-10T15:16:22;1.30;;;0.83;;